Time;durP1;ratioP1;P1;durP2;ratioP2;P2;SDS_P1;SDS_P2;PMS_P1;PMS_P2;Temp;Humidity;BMP_temperature;BMP_pressure;BME280_temperature;BME280_humidity;BME280_pressure;Samples;Min_cycle;Max_cycle;Signal;HPM_P1;HPM_P2
2023/03/18 00:00:40;;;;;;;;;;;;;;;-144.98;100.00;62585.19;4917101;29;19926;-77
2023/03/18 00:03:44;;;;;;;;;;;;;;;-144.98;100.00;62585.19;4917277;29;19950;-77
2023/03/18 00:06:48;;;;;;;;;;;;;;;-144.98;100.00;62585.19;4917065;29;19926;-77
2023/03/18 00:09:51;;;;;;;;;;;;;;;-144.98;100.00;62585.19;4916890;29;19951;-77
2023/03/18 00:12:55;;;;;;;;;;;;;;;-144.98;100.00;62585.19;4917241;29;20336;-77
2023/03/18 00:15:59;;;;;;;;;;;;;;;-144.98;100.00;62585.19;4905467;29;19993;-76
2023/03/18 00:19:03;;;;;;;;;;;;;;;-144.98;100.00;62585.19;4916092;29;20044;-78
2023/03/18 00:22:07;;;;;;;;;;;;;;;-144.98;100.00;62585.19;4916671;29;19947;-79
2023/03/18 00:25:12;;;;;;;;;;;;;;;-144.98;100.00;62585.19;4916765;29;19941;-78
2023/03/18 00:28:15;;;;;;;;;;;;;;;-144.98;100.00;62585.19;4916695;29;20018;-78
2023/03/18 00:31:18;;;;;;;;;;;;;;;-144.98;100.00;62585.19;4916743;29;19968;-77
2023/03/18 00:34:21;;;;;;;;;;;;;;;-144.98;100.00;62585.19;4916999;29;19926;-81
2023/03/18 00:37:30;;;;;;;;;;;;;;;-144.98;100.00;62585.19;4916755;29;20300;-79
2023/03/18 00:40:52;;;;;;;;;;;;;;;-144.98;100.00;62585.19;4915568;29;20423;-78
2023/03/18 00:43:55;;;;;;;;;;;;;;;-144.98;100.00;62585.19;4916709;29;20013;-77
2023/03/18 00:46:58;;;;;;;;;;;;;;;-144.98;100.00;62585.19;4916675;29;20443;-78
2023/03/18 00:50:03;;;;;;;;;;;;;;;-144.98;100.00;62585.19;4915677;29;19930;-77
2023/03/18 00:53:06;;;;;;;;;;;;;;;-144.98;100.00;62585.19;4904768;29;19930;-78
2023/03/18 00:56:11;;;;;;;;;;;;;;;-144.98;100.00;62585.19;4908326;29;20010;-77
2023/03/18 00:59:14;;;;;;;;;;;;;;;-144.98;100.00;62585.19;4908641;29;19926;-77
2023/03/18 01:02:17;;;;;;;;;;;;;;;-144.98;100.00;62585.19;4908312;29;19999;-77
2023/03/18 01:05:21;;;;;;;;;;;;;;;-144.98;100.00;62585.19;4914480;29;19925;-78
2023/03/18 01:08:25;;;;;;;;;;;;;;;-144.98;100.00;62585.19;4919995;29;19992;-78
2023/03/18 01:11:29;;;;;;;;;;;;;;;-144.98;100.00;62585.19;4919887;29;19995;-78
2023/03/18 01:14:32;;;;;;;;;;;;;;;-144.98;100.00;62585.19;4908102;29;19930;-77
2023/03/18 01:17:36;;;;;;;;;;;;;;;-144.98;100.00;62585.19;4908134;29;20018;-78
2023/03/18 01:20:39;;;;;;;;;;;;;;;-144.98;100.00;62585.19;4907878;29;19929;-78
2023/03/18 01:23:43;;;;;;;;;;;;;;;-144.98;100.00;62585.19;4907740;29;19927;-77
2023/03/18 01:26:46;;;;;;;;;;;;;;;-144.98;100.00;62585.19;4919935;29;19926;-77
2023/03/18 01:29:50;;;;;;;;;;;;;;;-144.98;100.00;62585.19;4918710;29;19979;-76
2023/03/18 01:32:57;;;;;;;;;;;;;;;-144.98;100.00;62585.19;4918556;29;19930;-76
2023/03/18 01:36:02;;;;;;;;;;;;;;;-144.98;100.00;62585.19;4907589;29;19975;-76
2023/03/18 01:39:09;;;;;;;;;;;;;;;-144.98;100.00;62585.19;4907919;29;20010;-76
2023/03/18 01:42:13;;;;;;;;;;;;;;;-144.98;100.00;62585.19;4907607;29;20308;-76
2023/03/18 01:45:20;;;;;;;;;;;;;;;-144.98;100.00;62585.19;4918385;29;19925;-77
2023/03/18 01:48:27;;;;;;;;;;;;;;;-144.98;100.00;62585.19;4907611;29;19930;-77
2023/03/18 01:51:42;;;;;;;;;;;;;;;-144.98;100.00;62585.19;4907173;29;19966;-78
2023/03/18 01:54:54;;;;;;;;;;;;;;;-144.98;100.00;62585.19;4907447;29;19965;-77
2023/03/18 01:57:58;;;;;;;;;;;;;;;-144.98;100.00;62585.19;4907499;29;19928;-77
2023/03/18 02:01:04;;;;;;;;;;;;;;;-144.98;100.00;62585.19;4907236;29;19967;-78
2023/03/18 02:04:09;;;;;;;;;;;;;;;-144.98;100.00;62585.19;4907511;29;20013;-78
2023/03/18 02:07:16;;;;;;;;;;;;;;;-144.98;100.00;62585.19;4917297;29;20006;-78
2023/03/18 02:10:21;;;;;;;;;;;;;;;-144.98;100.00;62585.19;4907339;29;19931;-78
2023/03/18 02:13:26;;;;;;;;;;;;;;;-144.98;100.00;62585.19;4907136;29;20296;-77
2023/03/18 02:16:33;;;;;;;;;;;;;;;-144.98;100.00;62585.19;4917915;29;19930;-78
2023/03/18 02:19:55;;;;;;;;;;;;;;;-144.98;100.00;62585.19;4917695;29;19947;-79
2023/03/18 02:23:08;;;;;;;;;;;;;;;-144.98;100.00;62585.19;4906746;29;20492;-78
2023/03/18 02:26:24;;;;;;;;;;;;;;;-144.98;100.00;62585.19;4917669;29;19926;-78
2023/03/18 02:29:29;;;;;;;;;;;;;;;-144.98;100.00;62585.19;4906671;29;19930;-78
2023/03/18 02:32:42;;;;;;;;;;;;;;;-144.98;100.00;62585.19;4906688;29;19969;-78
2023/03/18 02:35:55;;;;;;;;;;;;;;;-144.98;100.00;62585.19;4917499;29;20002;-78
2023/03/18 02:38:59;;;;;;;;;;;;;;;-144.98;100.00;62585.19;4906569;29;19965;-78
2023/03/18 02:42:03;;;;;;;;;;;;;;;-144.98;100.00;62585.19;4905202;29;19967;-78
2023/03/18 02:45:11;;;;;;;;;;;;;;;-144.98;100.00;62585.19;4916449;29;20022;-78
2023/03/18 02:48:25;;;;;;;;;;;;;;;-144.98;100.00;62585.19;4906513;29;20288;-78
2023/03/18 02:51:28;;;;;;;;;;;;;;;-144.98;100.00;62585.19;4906182;29;19930;-78
2023/03/18 02:54:32;;;;;;;;;;;;;;;-144.98;100.00;62585.19;4906567;29;20005;-77
2023/03/18 02:57:35;;;;;;;;;;;;;;;-144.98;100.00;62585.19;4917052;29;20467;-78
2023/03/18 03:00:38;;;;;;;;;;;;;;;-144.98;100.00;62585.19;4917947;29;19930;-78
2023/03/18 03:03:42;;;;;;;;;;;;;;;-144.98;100.00;62585.19;4918067;29;19990;-78
2023/03/18 03:06:47;;;;;;;;;;;;;;;-144.98;100.00;62585.19;4917042;29;20287;-77
2023/03/18 03:09:53;;;;;;;;;;;;;;;-144.98;100.00;62585.19;4905937;29;19938;-77
2023/03/18 03:12:56;;;;;;;;;;;;;;;-144.98;100.00;62585.19;4916792;29;19926;-77
2023/03/18 03:15:59;;;;;;;;;;;;;;;-144.98;100.00;62585.19;4906050;29;19926;-77
2023/03/18 03:19:04;;;;;;;;;;;;;;;-144.98;100.00;62585.19;4905725;29;20011;-77
2023/03/18 03:22:07;;;;;;;;;;;;;;;-144.98;100.00;62585.19;4905744;29;20411;-76
2023/03/18 03:25:11;;;;;;;;;;;;;;;-144.98;100.00;62585.19;4905725;29;19966;-77
2023/03/18 03:28:15;;;;;;;;;;;;;;;-144.98;100.00;62585.19;4916797;29;19951;-77
2023/03/18 03:31:18;;;;;;;;;;;;;;;-144.98;100.00;62585.19;4916631;29;19930;-78
2023/03/18 03:34:21;;;;;;;;;;;;;;;-144.98;100.00;62585.19;4905560;29;19978;-78
2023/03/18 03:37:24;;;;;;;;;;;;;;;-144.98;100.00;62585.19;4917282;29;19998;-78
2023/03/18 03:40:27;;;;;;;;;;;;;;;-144.98;100.00;62585.19;4905605;29;19966;-78
2023/03/18 03:43:32;;;;;;;;;;;;;;;-144.98;100.00;62585.19;4916438;29;19927;-78
2023/03/18 03:46:36;;;;;;;;;;;;;;;-144.98;100.00;62585.19;4905619;29;19926;-78
2023/03/18 03:49:39;;;;;;;;;;;;;;;-144.98;100.00;62585.19;4913959;29;19930;-78
2023/03/18 03:52:42;;;;;;;;;;;;;;;-144.98;100.00;62585.19;4916893;29;20339;-78
2023/03/18 03:55:45;;;;;;;;;;;;;;;-144.98;100.00;62585.19;4905477;29;19927;-78
2023/03/18 03:58:48;;;;;;;;;;;;;;;-144.98;100.00;62585.19;4905617;29;20015;-78
2023/03/18 04:01:52;;;;;;;;;;;;;;;-144.98;100.00;62585.19;4905399;29;19926;-78
2023/03/18 04:04:55;;;;;;;;;;;;;;;-144.98;100.00;62585.19;4905204;29;19942;-78
2023/03/18 04:08:05;;;;;;;;;;;;;;;-144.98;100.00;62585.19;4905206;29;20349;-78
2023/03/18 04:11:12;;;;;;;;;;;;;;;-144.98;100.00;62585.19;4916013;29;19981;-77
2023/03/18 04:14:17;;;;;;;;;;;;;;;-144.98;100.00;62585.19;4905277;29;20406;-78
2023/03/18 04:17:21;;;;;;;;;;;;;;;-144.98;100.00;62585.19;4905360;29;20296;-78
2023/03/18 04:20:25;;;;;;;;;;;;;;;-144.98;100.00;62585.19;4905099;29;19925;-78
2023/03/18 04:23:28;;;;;;;;;;;;;;;-144.98;100.00;62585.19;4917217;29;19975;-77
2023/03/18 04:26:32;;;;;;;;;;;;;;;-144.98;100.00;62585.19;4905035;29;19926;-77
2023/03/18 04:29:39;;;;;;;;;;;;;;;-144.98;100.00;62585.19;4917585;29;19970;-76
2023/03/18 04:32:42;;;;;;;;;;;;;;;-144.98;100.00;62585.19;4919976;29;20346;-77
2023/03/18 04:35:46;;;;;;;;;;;;;;;-144.98;100.00;62585.19;4919930;29;20007;-76
2023/03/18 04:38:52;;;;;;;;;;;;;;;-144.98;100.00;62585.19;4908698;29;19942;-77
2023/03/18 04:41:58;;;;;;;;;;;;;;;-144.98;100.00;62585.19;4908559;29;19926;-79
2023/03/18 04:45:04;;;;;;;;;;;;;;;-144.98;100.00;62585.19;4915084;29;20024;-78
2023/03/18 04:48:09;;;;;;;;;;;;;;;-144.98;100.00;62585.19;4912537;29;19981;-78
2023/03/18 04:51:17;;;;;;;;;;;;;;;-144.98;100.00;62585.19;4919468;29;20402;-78
2023/03/18 04:54:21;;;;;;;;;;;;;;;-144.98;100.00;62585.19;4898021;29;19926;-78
2023/03/18 04:57:27;;;;;;;;;;;;;;;-144.98;100.00;62585.19;4919635;29;19969;-79
2023/03/18 05:00:31;;;;;;;;;;;;;;;-144.98;100.00;62585.19;4919259;29;19982;-79
2023/03/18 05:03:47;;;;;;;;;;;;;;;-144.98;100.00;62585.19;4908222;29;19926;-78
2023/03/18 05:06:52;;;;;;;;;;;;;;;-144.98;100.00;62585.19;4908208;29;20299;-79
2023/03/18 05:10:08;;;;;;;;;;;;;;;-144.98;100.00;62585.19;4908144;29;20295;-78
2023/03/18 05:13:11;;;;;;;;;;;;;;;-144.98;100.00;62585.19;4908226;29;19941;-78
2023/03/18 05:16:15;;;;;;;;;;;;;;;-144.98;100.00;62585.19;4908021;29;20382;-78
2023/03/18 05:19:18;;;;;;;;;;;;;;;-144.98;100.00;62585.19;4919136;29;19972;-78
2023/03/18 05:22:29;;;;;;;;;;;;;;;-144.98;100.00;62585.19;4907948;29;19927;-79
2023/03/18 05:25:40;;;;;;;;;;;;;;;-144.98;100.00;62585.19;4907789;29;19966;-78
2023/03/18 05:28:44;;;;;;;;;;;;;;;-144.98;100.00;62585.19;4907467;29;19930;-78
2023/03/18 05:31:57;;;;;;;;;;;;;;;-144.98;100.00;62585.19;4918409;29;19944;-78
2023/03/18 05:35:02;;;;;;;;;;;;;;;-144.98;100.00;62585.19;4907380;29;19926;-78
2023/03/18 05:38:07;;;;;;;;;;;;;;;-144.98;100.00;62585.19;4907473;29;20031;-78
2023/03/18 05:41:11;;;;;;;;;;;;;;;-144.98;100.00;62585.19;4899558;29;19969;-77
2023/03/18 05:44:18;;;;;;;;;;;;;;;-144.98;100.00;62585.19;4918683;29;19969;-79
2023/03/18 05:47:24;;;;;;;;;;;;;;;-144.98;100.00;62585.19;4918697;29;19926;-77
2023/03/18 05:50:38;;;;;;;;;;;;;;;-144.98;100.00;62585.19;4907840;29;19929;-79
2023/03/18 05:53:45;;;;;;;;;;;;;;;-144.98;100.00;62585.19;4918082;29;20340;-79
2023/03/18 05:57:02;;;;;;;;;;;;;;;-144.98;100.00;62585.19;4906790;29;20355;-79
2023/03/18 06:00:17;;;;;;;;;;;;;;;-144.98;100.00;62585.19;4918218;29;19966;-79
2023/03/18 06:03:23;;;;;;;;;;;;;;;-144.98;100.00;62585.19;4900314;29;20311;-79
2023/03/18 06:06:27;;;;;;;;;;;;;;;-144.98;100.00;62585.19;4907215;29;19978;-80
2023/03/18 06:09:34;;;;;;;;;;;;;;;-144.98;100.00;62585.19;4914332;29;20402;-78
2023/03/18 06:12:40;;;;;;;;;;;;;;;-144.98;100.00;62585.19;4904006;29;20021;-77
2023/03/18 06:15:55;;;;;;;;;;;;;;;-144.98;100.00;62585.19;4907105;29;19926;-78
2023/03/18 06:19:05;;;;;;;;;;;;;;;-144.98;100.00;62585.19;4917578;29;19952;-79
2023/03/18 06:22:31;;;;;;;;;;;;;;;-144.98;100.00;62585.19;4918508;29;19951;-78
2023/03/18 06:25:35;;;;;;;;;;;;;;;-144.98;100.00;62585.19;4906992;29;19929;-78
2023/03/18 06:29:00;;;;;;;;;;;;;;;-144.98;100.00;62585.19;4918458;29;19930;-77
2023/03/18 06:32:04;;;;;;;;;;;;;;;-144.98;100.00;62585.19;4917603;29;19939;-78
2023/03/18 06:35:09;;;;;;;;;;;;;;;-144.98;100.00;62585.19;4918198;29;20004;-77
2023/03/18 06:38:15;;;;;;;;;;;;;;;-144.98;100.00;62585.19;4918306;29;20423;-77
2023/03/18 06:41:19;;;;;;;;;;;;;;;-144.98;100.00;62585.19;4918225;29;20500;-76
2023/03/18 06:44:53;;;;;;;;;;;;;;;-144.98;100.00;62585.19;4906484;29;19975;-77
2023/03/18 06:48:03;;;;;;;;;;;;;;;-144.98;100.00;62585.19;4905917;29;19926;-78
2023/03/18 06:51:09;;;;;;;;;;;;;;;-144.98;100.00;62585.19;4917049;29;19930;-79
2023/03/18 06:54:17;;;;;;;;;;;;;;;-144.98;100.00;62585.19;4904712;29;19976;-77
2023/03/18 06:57:21;;;;;;;;;;;;;;;-144.98;100.00;62585.19;4905044;29;19926;-76
2023/03/18 07:00:26;;;;;;;;;;;;;;;-144.98;100.00;62585.19;4916281;29;20303;-77
2023/03/18 07:03:31;;;;;;;;;;;;;;;-144.98;100.00;62585.19;4916523;29;20023;-80
2023/03/18 07:06:37;;;;;;;;;;;;;;;-144.98;100.00;62585.19;4916475;29;19927;-77
2023/03/18 07:09:42;;;;;;;;;;;;;;;-144.98;100.00;62585.19;4916357;29;19951;-77
2023/03/18 07:12:46;;;;;;;;;;;;;;;-144.98;100.00;62585.19;4915113;29;20051;-78
2023/03/18 07:15:50;;;;;;;;;;;;;;;-144.98;100.00;62585.19;4917190;29;19974;-76
2023/03/18 07:18:57;;;;;;;;;;;;;;;-144.98;100.00;62585.19;4917681;29;19926;-76
2023/03/18 07:22:01;;;;;;;;;;;;;;;-144.98;100.00;62585.19;4916660;29;20401;-81
2023/03/18 07:25:05;;;;;;;;;;;;;;;-144.98;100.00;62585.19;4917499;29;19926;-77
2023/03/18 07:28:12;;;;;;;;;;;;;;;-144.98;100.00;62585.19;4898744;29;19931;-79
2023/03/18 07:31:16;;;;;;;;;;;;;;;-144.98;100.00;62585.19;4916506;29;20339;-77
2023/03/18 07:34:20;;;;;;;;;;;;;;;-144.98;100.00;62585.19;4905571;29;19930;-80
2023/03/18 07:37:25;;;;;;;;;;;;;;;-144.98;100.00;62585.19;4916796;29;19941;-77
2023/03/18 07:40:27;;;;;;;;;;;;;;;-144.98;100.00;62585.19;4915886;29;19974;-80
2023/03/18 07:43:31;;;;;;;;;;;;;;;-144.98;100.00;62585.19;4917069;29;20390;-75
2023/03/18 07:46:33;;;;;;;;;;;;;;;-144.98;100.00;62585.19;4916662;29;20396;-77
2023/03/18 07:49:37;;;;;;;;;;;;;;;-144.98;100.00;62585.19;4916058;29;19930;-76
2023/03/18 07:52:41;;;;;;;;;;;;;;;-144.98;100.00;62585.19;4916873;29;20403;-77
2023/03/18 07:55:45;;;;;;;;;;;;;;;-144.98;100.00;62585.19;4916621;29;19926;-76
2023/03/18 07:58:50;;;;;;;;;;;;;;;-144.98;100.00;62585.19;4905380;29;19967;-76
2023/03/18 08:01:53;;;;;;;;;;;;;;;-144.98;100.00;62585.19;4917224;29;19926;-77
2023/03/18 08:04:56;;;;;;;;;;;;;;;-144.98;100.00;62585.19;4915500;29;20038;-77
2023/03/18 08:08:01;;;;;;;;;;;;;;;-144.98;100.00;62585.19;4905002;29;19957;-77
2023/03/18 08:11:04;;;;;;;;;;;;;;;-144.98;100.00;62585.19;4916525;29;19947;-77
2023/03/18 08:14:07;;;;;;;;;;;;;;;-144.98;100.00;62585.19;4917010;29;20349;-77
2023/03/18 08:17:12;;;;;;;;;;;;;;;-144.98;100.00;62585.19;4916990;29;19926;-77
2023/03/18 08:20:15;;;;;;;;;;;;;;;-144.98;100.00;62585.19;4917200;29;20279;-78
2023/03/18 08:23:19;;;;;;;;;;;;;;;-144.98;100.00;62585.19;4925890;29;19934;-77
2023/03/18 08:26:28;;;;;;;;;;;;;;;-144.98;100.00;62585.19;4925343;29;19966;-78
2023/03/18 08:29:32;;;;;;;;;;;;;;;-144.98;100.00;62585.19;4923315;29;19929;-77
2023/03/18 08:32:34;;;;;;;;;;;;;;;-144.98;100.00;62585.19;4919561;29;20032;-79
2023/03/18 08:35:42;;;;;;;;;;;;;;;-144.98;100.00;62585.19;4915225;29;19930;-77
2023/03/18 08:38:45;;;;;;;;;;;;;;;-144.98;100.00;62585.19;4924420;29;19929;-79
2023/03/18 08:41:48;;;;;;;;;;;;;;;-144.98;100.00;62585.19;4928276;29;19934;-80
2023/03/18 08:44:52;;;;;;;;;;;;;;;-144.98;100.00;62585.19;4923947;29;20391;-79
2023/03/18 08:47:55;;;;;;;;;;;;;;;-144.98;100.00;62585.19;4924097;29;20397;-79
2023/03/18 08:50:58;;;;;;;;;;;;;;;-144.98;100.00;62585.19;4923137;29;19929;-78
2023/03/18 08:54:01;;;;;;;;;;;;;;;-144.98;100.00;62585.19;4925688;29;19973;-77
2023/03/18 08:57:04;;;;;;;;;;;;;;;-144.98;100.00;62585.19;4915875;29;19977;-78
2023/03/18 09:00:08;;;;;;;;;;;;;;;-144.98;100.00;62585.19;4915525;29;19926;-79
2023/03/18 09:03:11;;;;;;;;;;;;;;;-144.98;100.00;62585.19;4916077;29;19977;-79
2023/03/18 09:06:15;;;;;;;;;;;;;;;-144.98;100.00;62585.19;4916807;29;19930;-78
2023/03/18 09:09:19;;;;;;;;;;;;;;;-144.98;100.00;62585.19;4916210;29;19926;-78
2023/03/18 09:12:23;;;;;;;;;;;;;;;-144.98;100.00;62585.19;4916271;29;19994;-78
2023/03/18 09:15:26;;;;;;;;;;;;;;;-144.98;100.00;62585.19;4917438;29;19926;-77
2023/03/18 09:18:29;;;;;;;;;;;;;;;-144.98;100.00;62585.19;4919264;29;19926;-78
2023/03/18 09:21:34;;;;;;;;;;;;;;;-144.98;100.00;62585.19;4919748;29;19989;-78
2023/03/18 09:24:38;;;;;;;;;;;;;;;-144.98;100.00;62585.19;4919441;29;19965;-78
2023/03/18 09:27:41;;;;;;;;;;;;;;;-144.98;100.00;62585.19;4919843;29;19982;-77
2023/03/18 09:30:45;;;;;;;;;;;;;;;-144.98;100.00;62585.19;4918732;29;19974;-77
2023/03/18 09:33:48;;;;;;;;;;;;;;;-144.98;100.00;62585.19;4917634;29;20001;-76
2023/03/18 09:36:52;;;;;;;;;;;;;;;-144.98;100.00;62585.19;4918981;29;19942;-77
2023/03/18 09:39:56;;;;;;;;;;;;;;;-144.98;100.00;62585.19;4919522;29;19962;-77
2023/03/18 09:43:01;;;;;;;;;;;;;;;-144.98;100.00;62585.19;4919391;29;19982;-78
2023/03/18 09:46:08;;;;;;;;;;;;;;;-144.98;100.00;62585.19;4919235;29;19952;-78
2023/03/18 09:49:18;;;;;;;;;;;;;;;-144.98;100.00;62585.19;4906788;29;19966;-78
2023/03/18 09:52:30;;;;;;;;;;;;;;;-144.98;100.00;62585.19;4918975;29;19929;-78
2023/03/18 09:55:38;;;;;;;;;;;;;;;-144.98;100.00;62585.19;4919284;29;19974;-78
2023/03/18 09:58:47;;;;;;;;;;;;;;;-144.98;100.00;62585.19;4907649;29;19925;-81
2023/03/18 10:01:53;;;;;;;;;;;;;;;-144.98;100.00;62585.19;4919053;29;20026;-81
2023/03/18 10:04:58;;;;;;;;;;;;;;;-144.98;100.00;62585.19;4919246;29;19941;-81
2023/03/18 10:08:07;;;;;;;;;;;;;;;-144.98;100.00;62585.19;4918232;29;19925;-81
2023/03/18 10:11:18;;;;;;;;;;;;;;;-144.98;100.00;62585.19;4919054;29;19947;-80
2023/03/18 10:14:41;;;;;;;;;;;;;;;-144.98;100.00;62585.19;4918253;29;19926;-81
2023/03/18 10:18:09;;;;;;;;;;;;;;;-144.98;100.00;62585.19;4917041;29;20062;-80
2023/03/18 10:21:37;;;;;;;;;;;;;;;-144.98;100.00;62585.19;4916564;29;19926;-80
2023/03/18 10:24:49;;;;;;;;;;;;;;;-144.98;100.00;62585.19;4918862;29;19926;-79
2023/03/18 10:28:21;;;;;;;;;;;;;;;-144.98;100.00;62585.19;4917226;29;20418;-79
2023/03/18 10:31:34;;;;;;;;;;;;;;;-144.98;100.00;62585.19;4916766;29;19986;-79
2023/03/18 10:34:36;;;;;;;;;;;;;;;-144.98;100.00;62585.19;4917905;29;20022;-78
2023/03/18 10:37:50;;;;;;;;;;;;;;;-144.98;100.00;62585.19;4917514;29;19930;-79
2023/03/18 10:40:54;;;;;;;;;;;;;;;-144.98;100.00;62585.19;4918052;29;19926;-79
2023/03/18 10:44:03;;;;;;;;;;;;;;;-144.98;100.00;62585.19;4917868;29;19951;-77
2023/03/18 10:47:22;;;;;;;;;;;;;;;-144.98;100.00;62585.19;4906310;29;19926;-78
2023/03/18 10:50:34;;;;;;;;;;;;;;;-144.98;100.00;62585.19;4917686;29;19945;-77
2023/03/18 10:53:58;;;;;;;;;;;;;;;-144.98;100.00;62585.19;4917801;29;19946;-77
2023/03/18 10:57:04;;;;;;;;;;;;;;;-144.98;100.00;62585.19;4917053;29;19926;-80
2023/03/18 11:00:25;;;;;;;;;;;;;;;-144.98;100.00;62585.19;4917150;29;20343;-79
2023/03/18 11:03:35;;;;;;;;;;;;;;;-144.98;100.00;62585.19;4917816;29;19925;-79
2023/03/18 11:06:46;;;;;;;;;;;;;;;-144.98;100.00;62585.19;4906152;29;19930;-79
2023/03/18 11:09:49;;;;;;;;;;;;;;;-144.98;100.00;62585.19;4917193;29;19951;-81
2023/03/18 11:13:01;;;;;;;;;;;;;;;-144.98;100.00;62585.19;4917427;29;19975;-81
2023/03/18 11:16:05;;;;;;;;;;;;;;;-144.98;100.00;62585.19;4917831;29;20319;-80
2023/03/18 11:19:34;;;;;;;;;;;;;;;-144.98;100.00;62585.19;4916372;29;19965;-77
2023/03/18 11:22:43;;;;;;;;;;;;;;;-144.98;100.00;62585.19;4917575;29;19925;-80
2023/03/18 11:25:47;;;;;;;;;;;;;;;-144.98;100.00;62585.19;4916143;29;19926;-80
2023/03/18 11:28:58;;;;;;;;;;;;;;;-144.98;100.00;62585.19;4916258;29;19930;-79
2023/03/18 11:32:22;;;;;;;;;;;;;;;-144.98;100.00;62585.19;4915903;29;20002;-77
2023/03/18 11:35:36;;;;;;;;;;;;;;;-144.98;100.00;62585.19;4917297;29;20424;-78
2023/03/18 11:38:46;;;;;;;;;;;;;;;-144.98;100.00;62585.19;4904731;29;19946;-77
2023/03/18 11:41:51;;;;;;;;;;;;;;;-144.98;100.00;62585.19;4917519;29;19926;-79
2023/03/18 11:45:00;;;;;;;;;;;;;;;-144.98;100.00;62585.19;4916166;29;19926;-77
2023/03/18 11:48:10;;;;;;;;;;;;;;;-144.98;100.00;62585.19;4917316;29;19946;-78
2023/03/18 11:51:23;;;;;;;;;;;;;;;-144.98;100.00;62585.19;4915213;29;20014;-79
2023/03/18 11:54:46;;;;;;;;;;;;;;;-144.98;100.00;62585.19;4919558;29;20440;-79
2023/03/18 11:57:59;;;;;;;;;;;;;;;-144.98;100.00;62585.19;4916566;29;19926;-78
2023/03/18 12:01:02;;;;;;;;;;;;;;;-144.98;100.00;62585.19;4917053;29;20294;-78
2023/03/18 12:04:12;;;;;;;;;;;;;;;-144.98;100.00;62585.19;4914844;29;19926;-78
2023/03/18 12:07:16;;;;;;;;;;;;;;;-144.98;100.00;62585.19;4917069;29;19926;-78
2023/03/18 12:10:27;;;;;;;;;;;;;;;-144.98;100.00;62585.19;4905200;29;19934;-76
2023/03/18 12:13:39;;;;;;;;;;;;;;;-144.98;100.00;62585.19;4916303;29;19926;-75
2023/03/18 12:17:05;;;;;;;;;;;;;;;;;;;;;
2023/03/18 12:20:18;;;;;;;;;;;;;;;-144.98;100.00;62585.19;4916872;29;19930;-77
2023/03/18 12:23:43;;;;;;;;;;;;;;;-144.98;100.00;62585.19;4905377;29;19975;-74
2023/03/18 12:26:52;;;;;;;;;;;;;;;-144.98;100.00;62585.19;4916430;29;20571;-76
2023/03/18 12:30:14;;;;;;;;;;;;;;;-144.98;100.00;62585.19;4919025;29;19977;-77
2023/03/18 12:33:17;;;;;;;;;;;;;;;-144.98;100.00;62585.19;4918819;29;20390;-81
2023/03/18 12:36:36;;;;;;;;;;;;;;;-144.98;100.00;62585.19;4916397;29;19973;-77
2023/03/18 12:40:11;;;;;;;;;;;;;;;-144.98;100.00;62585.19;4916082;29;19983;-78
2023/03/18 12:43:26;;;;;;;;;;;;;;;-144.98;100.00;62585.19;4927055;29;20000;-74
2023/03/18 12:46:33;;;;;;;;;;;;;;;-144.98;100.00;62585.19;4935307;29;19951;-76
2023/03/18 12:49:48;;;;;;;;;;;;;;;-144.98;100.00;62585.19;4916131;29;19931;-76
2023/03/18 12:53:01;;;;;;;;;;;;;;;-144.98;100.00;62585.19;4919472;29;19979;-76
2023/03/18 12:56:12;;;;;;;;;;;;;;;-144.98;100.00;62585.19;4920125;29;19926;-78
2023/03/18 12:59:32;;;;;;;;;;;;;;;-144.98;100.00;62585.19;4920194;29;19926;-78
2023/03/18 13:02:42;;;;;;;;;;;;;;;-144.98;100.00;62585.19;4908759;29;19934;-78
2023/03/18 13:05:51;;;;;;;;;;;;;;;-144.98;100.00;62585.19;4920341;29;19926;-78
2023/03/18 13:09:14;;;;;;;;;;;;;;;-144.98;100.00;62585.19;4920175;29;19929;-78
2023/03/18 13:12:32;;;;;;;;;;;;;;;-144.98;100.00;62585.19;4919860;29;19926;-78
2023/03/18 13:15:41;;;;;;;;;;;;;;;-144.98;100.00;62585.19;4919707;29;20014;-77
2023/03/18 13:18:49;;;;;;;;;;;;;;;-144.98;100.00;62585.19;4919721;29;20395;-77
2023/03/18 13:22:01;;;;;;;;;;;;;;;-144.98;100.00;62585.19;4919671;29;20296;-79
2023/03/18 13:25:14;;;;;;;;;;;;;;;-144.98;100.00;62585.19;4907945;29;20029;-79
2023/03/18 13:28:31;;;;;;;;;;;;;;;-144.98;100.00;62585.19;4919576;29;19926;-80
2023/03/18 13:31:53;;;;;;;;;;;;;;;-144.98;100.00;62585.19;4919746;29;20344;-80
2023/03/18 13:35:02;;;;;;;;;;;;;;;-144.98;100.00;62585.19;4919794;29;20059;-80
2023/03/18 13:38:16;;;;;;;;;;;;;;;-144.98;100.00;62585.19;4919615;29;19975;-78
2023/03/18 13:41:27;;;;;;;;;;;;;;;-144.98;100.00;62585.19;4919354;29;20017;-80
2023/03/18 13:44:41;;;;;;;;;;;;;;;-144.98;100.00;62585.19;4919243;29;20442;-78
2023/03/18 13:47:45;;;;;;;;;;;;;;;-144.98;100.00;62585.19;4919490;29;20008;-78
2023/03/18 13:50:49;;;;;;;;;;;;;;;-144.98;100.00;62585.19;4918984;29;20066;-79
2023/03/18 13:53:55;;;;;;;;;;;;;;;-144.98;100.00;62585.19;4919187;29;19929;-76
2023/03/18 13:57:15;;;;;;;;;;;;;;;-144.98;100.00;62585.19;4919140;29;20056;-77
2023/03/18 14:00:31;;;;;;;;;;;;;;;-144.98;100.00;62585.19;4919078;29;20063;-77
2023/03/18 14:03:41;;;;;;;;;;;;;;;-144.98;100.00;62585.19;4918658;29;19967;-76
2023/03/18 14:06:45;;;;;;;;;;;;;;;-144.98;100.00;62585.19;4918852;29;20009;-76
2023/03/18 14:10:00;;;;;;;;;;;;;;;-144.98;100.00;62585.19;4918910;29;19934;-76
2023/03/18 14:13:27;;;;;;;;;;;;;;;-144.98;100.00;62585.19;4919055;29;20355;-70
2023/03/18 14:16:33;;;;;;;;;;;;;;;-144.98;100.00;62585.19;4918738;29;19943;-70
2023/03/18 14:19:38;;;;;;;;;;;;;;;-144.98;100.00;62585.19;4918700;29;20390;-70
2023/03/18 14:22:53;;;;;;;;;;;;;;;-144.98;100.00;62585.19;4918579;29;19942;-69
2023/03/18 14:26:18;;;;;;;;;;;;;;;-144.98;100.00;62585.19;4918578;29;19973;-70
2023/03/18 14:29:24;;;;;;;;;;;;;;;-144.98;100.00;62585.19;4918342;29;20026;-70
2023/03/18 14:32:33;;;;;;;;;;;;;;;-144.98;100.00;62585.19;4918434;29;19930;-70
2023/03/18 14:35:48;;;;;;;;;;;;;;;-144.98;100.00;62585.19;4918642;29;19925;-70
2023/03/18 14:39:00;;;;;;;;;;;;;;;-144.98;100.00;62585.19;4918348;29;19930;-70
2023/03/18 14:42:24;;;;;;;;;;;;;;;-144.98;100.00;62585.19;4918593;29;19926;-77
2023/03/18 14:45:31;;;;;;;;;;;;;;;-144.98;100.00;62585.19;4917851;29;19925;-74
2023/03/18 14:48:34;;;;;;;;;;;;;;;-144.98;100.00;62585.19;4917920;29;19974;-77
2023/03/18 14:51:37;;;;;;;;;;;;;;;-144.98;100.00;62585.19;4917863;29;19930;-75
2023/03/18 14:54:42;;;;;;;;;;;;;;;-144.98;100.00;62585.19;4918315;29;20036;-74
2023/03/18 14:57:45;;;;;;;;;;;;;;;-144.98;100.00;62585.19;4918451;29;20035;-75
2023/03/18 15:00:54;;;;;;;;;;;;;;;-144.98;100.00;62585.19;4918022;29;19973;-75
2023/03/18 15:03:57;;;;;;;;;;;;;;;-144.98;100.00;62585.19;4917995;29;19951;-77
2023/03/18 15:07:04;;;;;;;;;;;;;;;-144.98;100.00;62585.19;4917825;29;19926;-75
2023/03/18 15:10:18;;;;;;;;;;;;;;;-144.98;100.00;62585.19;4917769;29;20351;-76
2023/03/18 15:13:22;;;;;;;;;;;;;;;-144.98;100.00;62585.19;4917896;29;19925;-75
2023/03/18 15:16:29;;;;;;;;;;;;;;;-144.98;100.00;62585.19;4918178;29;19989;-75
2023/03/18 15:19:32;;;;;;;;;;;;;;;-144.98;100.00;62585.19;4917581;29;20018;-76
2023/03/18 15:22:35;;;;;;;;;;;;;;;-144.98;100.00;62585.19;4905548;29;19926;-78
2023/03/18 15:25:40;;;;;;;;;;;;;;;-144.98;100.00;62585.19;4917571;29;20360;-75
2023/03/18 15:28:46;;;;;;;;;;;;;;;-144.98;100.00;62585.19;4917344;29;20292;-75
2023/03/18 15:31:50;;;;;;;;;;;;;;;-144.98;100.00;62585.19;4917176;29;20467;-75
2023/03/18 15:34:53;;;;;;;;;;;;;;;-144.98;100.00;62585.19;4917261;29;19941;-75
2023/03/18 15:38:12;;;;;;;;;;;;;;;-144.98;100.00;62585.19;4917421;29;19953;-76
2023/03/18 15:41:24;;;;;;;;;;;;;;;-144.98;100.00;62585.19;4917372;29;20026;-76